sensor_id;sensor_type;location;lat;lon;timestamp;P1;durP1;ratioP1;P2;durP2;ratioP2
76171;SDS011;64929;51.178;4.138;2023-07-22T00:00:27;12.32;;;6.18;;
76171;SDS011;64929;51.178;4.138;2023-07-22T00:02:53;9.50;;;6.18;;
76171;SDS011;64929;51.178;4.138;2023-07-22T00:05:19;16.45;;;6.57;;
76171;SDS011;64929;51.178;4.138;2023-07-22T00:07:48;9.68;;;6.20;;
76171;SDS011;64929;51.178;4.138;2023-07-22T00:10:17;9.67;;;5.73;;
76171;SDS011;64929;51.178;4.138;2023-07-22T00:12:43;9.82;;;6.00;;
76171;SDS011;64929;51.178;4.138;2023-07-22T00:15:09;9.35;;;6.28;;
76171;SDS011;64929;51.178;4.138;2023-07-22T00:17:41;10.43;;;6.45;;
76171;SDS011;64929;51.178;4.138;2023-07-22T00:20:07;10.43;;;6.20;;
76171;SDS011;64929;51.178;4.138;2023-07-22T00:22:36;9.63;;;5.85;;
76171;SDS011;64929;51.178;4.138;2023-07-22T00:25:05;9.77;;;6.25;;
76171;SDS011;64929;51.178;4.138;2023-07-22T00:27:32;10.70;;;6.07;;
76171;SDS011;64929;51.178;4.138;2023-07-22T00:29:58;13.27;;;6.35;;
76171;SDS011;64929;51.178;4.138;2023-07-22T00:32:24;11.10;;;6.60;;
76171;SDS011;64929;51.178;4.138;2023-07-22T00:34:50;12.40;;;6.50;;
76171;SDS011;64929;51.178;4.138;2023-07-22T00:37:16;12.05;;;6.13;;
76171;SDS011;64929;51.178;4.138;2023-07-22T00:39:42;7.88;;;5.93;;
76171;SDS011;64929;51.178;4.138;2023-07-22T00:42:07;9.30;;;6.28;;
76171;SDS011;64929;51.178;4.138;2023-07-22T00:44:33;10.00;;;5.97;;
76171;SDS011;64929;51.178;4.138;2023-07-22T00:46:59;12.30;;;6.45;;
76171;SDS011;64929;51.178;4.138;2023-07-22T00:49:26;12.20;;;6.85;;
76171;SDS011;64929;51.178;4.138;2023-07-22T00:51:52;12.75;;;6.63;;
76171;SDS011;64929;51.178;4.138;2023-07-22T00:54:18;12.85;;;5.95;;
76171;SDS011;64929;51.178;4.138;2023-07-22T00:56:43;9.85;;;5.95;;
76171;SDS011;64929;51.178;4.138;2023-07-22T00:59:11;10.88;;;6.60;;
76171;SDS011;64929;51.178;4.138;2023-07-22T01:01:40;9.63;;;5.80;;
76171;SDS011;64929;51.178;4.138;2023-07-22T01:04:06;11.02;;;5.95;;
76171;SDS011;64929;51.178;4.138;2023-07-22T01:06:32;9.50;;;6.03;;
76171;SDS011;64929;51.178;4.138;2023-07-22T01:08:59;10.50;;;6.60;;
76171;SDS011;64929;51.178;4.138;2023-07-22T01:11:25;9.32;;;6.90;;
76171;SDS011;64929;51.178;4.138;2023-07-22T01:13:51;12.82;;;6.82;;
76171;SDS011;64929;51.178;4.138;2023-07-22T01:16:23;13.88;;;7.10;;
76171;SDS011;64929;51.178;4.138;2023-07-22T01:18:49;10.38;;;6.82;;
76171;SDS011;64929;51.178;4.138;2023-07-22T01:21:15;11.20;;;6.65;;
76171;SDS011;64929;51.178;4.138;2023-07-22T01:23:41;14.38;;;7.38;;
76171;SDS011;64929;51.178;4.138;2023-07-22T01:26:07;11.07;;;6.35;;
76171;SDS011;64929;51.178;4.138;2023-07-22T01:28:36;11.15;;;6.60;;
76171;SDS011;64929;51.178;4.138;2023-07-22T01:31:02;10.95;;;7.05;;
76171;SDS011;64929;51.178;4.138;2023-07-22T01:33:28;13.60;;;6.60;;
76171;SDS011;64929;51.178;4.138;2023-07-22T01:35:54;10.18;;;6.78;;
76171;SDS011;64929;51.178;4.138;2023-07-22T01:38:19;11.68;;;6.88;;
76171;SDS011;64929;51.178;4.138;2023-07-22T01:40:45;16.65;;;6.97;;
76171;SDS011;64929;51.178;4.138;2023-07-22T01:43:11;9.30;;;6.15;;
76171;SDS011;64929;51.178;4.138;2023-07-22T01:45:36;13.00;;;7.40;;
76171;SDS011;64929;51.178;4.138;2023-07-22T01:48:03;14.43;;;6.93;;
76171;SDS011;64929;51.178;4.138;2023-07-22T01:50:29;9.63;;;6.22;;
76171;SDS011;64929;51.178;4.138;2023-07-22T01:52:55;9.93;;;6.60;;
76171;SDS011;64929;51.178;4.138;2023-07-22T01:55:21;12.35;;;7.97;;
76171;SDS011;64929;51.178;4.138;2023-07-22T01:57:46;11.95;;;7.22;;
76171;SDS011;64929;51.178;4.138;2023-07-22T02:00:12;11.98;;;6.78;;
76171;SDS011;64929;51.178;4.138;2023-07-22T02:02:40;11.57;;;6.43;;
76171;SDS011;64929;51.178;4.138;2023-07-22T02:05:07;13.88;;;6.78;;
76171;SDS011;64929;51.178;4.138;2023-07-22T02:07:34;14.60;;;7.32;;
76171;SDS011;64929;51.178;4.138;2023-07-22T02:10:00;11.75;;;6.63;;
76171;SDS011;64929;51.178;4.138;2023-07-22T02:12:26;14.27;;;6.82;;
76171;SDS011;64929;51.178;4.138;2023-07-22T02:14:51;9.95;;;6.80;;
76171;SDS011;64929;51.178;4.138;2023-07-22T02:17:17;10.73;;;6.95;;
76171;SDS011;64929;51.178;4.138;2023-07-22T02:19:43;11.00;;;7.38;;
76171;SDS011;64929;51.178;4.138;2023-07-22T02:22:08;11.05;;;6.63;;
76171;SDS011;64929;51.178;4.138;2023-07-22T02:24:34;13.50;;;7.47;;
76171;SDS011;64929;51.178;4.138;2023-07-22T02:27:00;12.10;;;6.75;;
76171;SDS011;64929;51.178;4.138;2023-07-22T02:29:26;11.25;;;6.50;;
76171;SDS011;64929;51.178;4.138;2023-07-22T02:31:51;14.98;;;7.32;;
76171;SDS011;64929;51.178;4.138;2023-07-22T02:34:17;10.98;;;7.13;;
76171;SDS011;64929;51.178;4.138;2023-07-22T02:36:43;13.88;;;7.10;;
76171;SDS011;64929;51.178;4.138;2023-07-22T02:39:09;13.45;;;7.35;;
76171;SDS011;64929;51.178;4.138;2023-07-22T02:41:37;12.82;;;6.97;;
76171;SDS011;64929;51.178;4.138;2023-07-22T02:44:04;11.80;;;7.32;;
76171;SDS011;64929;51.178;4.138;2023-07-22T02:46:30;11.77;;;7.18;;
76171;SDS011;64929;51.178;4.138;2023-07-22T02:48:56;12.68;;;7.40;;
76171;SDS011;64929;51.178;4.138;2023-07-22T02:51:23;13.65;;;7.13;;
76171;SDS011;64929;51.178;4.138;2023-07-22T02:53:49;13.85;;;6.75;;
76171;SDS011;64929;51.178;4.138;2023-07-22T02:56:15;11.57;;;6.63;;
76171;SDS011;64929;51.178;4.138;2023-07-22T02:58:41;15.43;;;7.22;;
76171;SDS011;64929;51.178;4.138;2023-07-22T03:01:07;13.15;;;7.65;;
76171;SDS011;64929;51.178;4.138;2023-07-22T03:03:34;14.90;;;7.22;;
76171;SDS011;64929;51.178;4.138;2023-07-22T03:06:00;11.77;;;6.82;;
76171;SDS011;64929;51.178;4.138;2023-07-22T03:08:27;16.83;;;7.68;;
76171;SDS011;64929;51.178;4.138;2023-07-22T03:10:52;18.02;;;7.50;;
76171;SDS011;64929;51.178;4.138;2023-07-22T03:13:18;12.30;;;7.25;;
76171;SDS011;64929;51.178;4.138;2023-07-22T03:15:44;13.80;;;7.70;;
76171;SDS011;64929;51.178;4.138;2023-07-22T03:18:10;11.80;;;7.55;;
76171;SDS011;64929;51.178;4.138;2023-07-22T03:20:37;15.13;;;7.20;;
76171;SDS011;64929;51.178;4.138;2023-07-22T03:23:04;12.23;;;7.63;;
76171;SDS011;64929;51.178;4.138;2023-07-22T03:25:30;13.57;;;7.38;;
76171;SDS011;64929;51.178;4.138;2023-07-22T03:27:57;12.15;;;7.13;;
76171;SDS011;64929;51.178;4.138;2023-07-22T03:30:23;16.52;;;8.00;;
76171;SDS011;64929;51.178;4.138;2023-07-22T03:32:49;13.93;;;7.82;;
76171;SDS011;64929;51.178;4.138;2023-07-22T03:35:17;13.73;;;7.07;;
76171;SDS011;64929;51.178;4.138;2023-07-22T03:37:43;16.65;;;8.45;;
76171;SDS011;64929;51.178;4.138;2023-07-22T03:40:09;13.20;;;7.53;;
76171;SDS011;64929;51.178;4.138;2023-07-22T03:42:54;11.93;;;6.72;;
76171;SDS011;64929;51.178;4.138;2023-07-22T03:45:21;15.00;;;7.53;;
76171;SDS011;64929;51.178;4.138;2023-07-22T03:47:50;15.05;;;7.70;;
76171;SDS011;64929;51.178;4.138;2023-07-22T03:50:17;20.75;;;7.90;;
76171;SDS011;64929;51.178;4.138;2023-07-22T03:52:44;15.45;;;7.65;;
76171;SDS011;64929;51.178;4.138;2023-07-22T03:55:09;12.18;;;7.22;;
76171;SDS011;64929;51.178;4.138;2023-07-22T03:57:35;12.98;;;7.53;;
76171;SDS011;64929;51.178;4.138;2023-07-22T04:00:02;13.45;;;7.13;;
76171;SDS011;64929;51.178;4.138;2023-07-22T04:02:29;13.10;;;7.55;;
76171;SDS011;64929;51.178;4.138;2023-07-22T04:04:54;12.38;;;7.78;;
76171;SDS011;64929;51.178;4.138;2023-07-22T04:07:21;15.60;;;7.47;;
76171;SDS011;64929;51.178;4.138;2023-07-22T04:09:47;11.48;;;7.18;;
76171;SDS011;64929;51.178;4.138;2023-07-22T04:12:13;14.07;;;7.90;;
76171;SDS011;64929;51.178;4.138;2023-07-22T04:14:39;15.50;;;7.95;;
76171;SDS011;64929;51.178;4.138;2023-07-22T04:17:05;14.60;;;7.65;;
76171;SDS011;64929;51.178;4.138;2023-07-22T04:19:31;11.43;;;6.90;;
76171;SDS011;64929;51.178;4.138;2023-07-22T04:21:57;12.02;;;7.15;;
76171;SDS011;64929;51.178;4.138;2023-07-22T04:24:22;12.68;;;7.43;;
76171;SDS011;64929;51.178;4.138;2023-07-22T04:26:50;14.38;;;7.00;;
76171;SDS011;64929;51.178;4.138;2023-07-22T04:29:15;17.08;;;7.43;;
76171;SDS011;64929;51.178;4.138;2023-07-22T04:31:41;14.25;;;8.05;;
76171;SDS011;64929;51.178;4.138;2023-07-22T04:34:08;13.15;;;7.35;;
76171;SDS011;64929;51.178;4.138;2023-07-22T04:36:34;12.70;;;6.88;;
76171;SDS011;64929;51.178;4.138;2023-07-22T04:39:01;16.33;;;8.20;;
76171;SDS011;64929;51.178;4.138;2023-07-22T04:41:30;15.90;;;7.93;;
76171;SDS011;64929;51.178;4.138;2023-07-22T04:43:56;13.48;;;7.30;;
76171;SDS011;64929;51.178;4.138;2023-07-22T04:46:23;16.27;;;7.60;;
76171;SDS011;64929;51.178;4.138;2023-07-22T04:48:50;13.27;;;7.45;;
76171;SDS011;64929;51.178;4.138;2023-07-22T04:51:18;13.98;;;7.63;;
76171;SDS011;64929;51.178;4.138;2023-07-22T04:53:44;13.55;;;8.07;;
76171;SDS011;64929;51.178;4.138;2023-07-22T04:56:10;13.90;;;7.60;;
76171;SDS011;64929;51.178;4.138;2023-07-22T04:58:35;14.30;;;7.50;;
76171;SDS011;64929;51.178;4.138;2023-07-22T05:01:01;15.18;;;8.02;;
76171;SDS011;64929;51.178;4.138;2023-07-22T05:03:27;11.30;;;7.00;;
76171;SDS011;64929;51.178;4.138;2023-07-22T05:05:52;16.40;;;7.45;;
76171;SDS011;64929;51.178;4.138;2023-07-22T05:08:18;14.95;;;7.53;;
76171;SDS011;64929;51.178;4.138;2023-07-22T05:10:44;12.45;;;7.38;;
76171;SDS011;64929;51.178;4.138;2023-07-22T05:13:10;16.27;;;8.00;;
76171;SDS011;64929;51.178;4.138;2023-07-22T05:15:35;14.32;;;7.72;;
76171;SDS011;64929;51.178;4.138;2023-07-22T05:18:01;14.45;;;7.07;;
76171;SDS011;64929;51.178;4.138;2023-07-22T05:20:27;14.82;;;7.28;;
76171;SDS011;64929;51.178;4.138;2023-07-22T05:22:52;14.05;;;6.97;;
76171;SDS011;64929;51.178;4.138;2023-07-22T05:25:18;14.25;;;7.30;;
76171;SDS011;64929;51.178;4.138;2023-07-22T05:27:44;13.07;;;7.38;;
76171;SDS011;64929;51.178;4.138;2023-07-22T05:30:10;14.05;;;7.32;;
76171;SDS011;64929;51.178;4.138;2023-07-22T05:32:35;15.27;;;7.18;;
76171;SDS011;64929;51.178;4.138;2023-07-22T05:35:01;13.55;;;7.35;;
76171;SDS011;64929;51.178;4.138;2023-07-22T05:37:30;16.27;;;7.25;;
76171;SDS011;64929;51.178;4.138;2023-07-22T05:39:57;14.02;;;7.00;;
76171;SDS011;64929;51.178;4.138;2023-07-22T05:42:23;12.60;;;7.25;;
76171;SDS011;64929;51.178;4.138;2023-07-22T05:44:48;16.98;;;7.60;;
76171;SDS011;64929;51.178;4.138;2023-07-22T05:47:14;11.00;;;6.63;;
76171;SDS011;64929;51.178;4.138;2023-07-22T05:49:40;12.63;;;7.07;;
76171;SDS011;64929;51.178;4.138;2023-07-22T05:52:06;14.20;;;7.38;;
76171;SDS011;64929;51.178;4.138;2023-07-22T05:54:32;12.90;;;7.25;;
76171;SDS011;64929;51.178;4.138;2023-07-22T05:56:58;12.93;;;6.50;;
76171;SDS011;64929;51.178;4.138;2023-07-22T05:59:23;11.40;;;7.05;;
76171;SDS011;64929;51.178;4.138;2023-07-22T06:01:49;11.38;;;6.53;;
76171;SDS011;64929;51.178;4.138;2023-07-22T06:04:15;13.70;;;6.55;;
76171;SDS011;64929;51.178;4.138;2023-07-22T06:06:41;14.80;;;6.78;;
76171;SDS011;64929;51.178;4.138;2023-07-22T06:09:06;11.77;;;6.00;;
76171;SDS011;64929;51.178;4.138;2023-07-22T06:11:32;11.85;;;6.35;;
76171;SDS011;64929;51.178;4.138;2023-07-22T06:13:58;13.50;;;6.28;;
76171;SDS011;64929;51.178;4.138;2023-07-22T06:16:23;9.80;;;6.22;;
76171;SDS011;64929;51.178;4.138;2023-07-22T06:18:49;9.73;;;6.05;;
76171;SDS011;64929;51.178;4.138;2023-07-22T06:21:15;11.52;;;7.07;;
76171;SDS011;64929;51.178;4.138;2023-07-22T06:23:41;13.27;;;6.72;;
76171;SDS011;64929;51.178;4.138;2023-07-22T06:26:06;12.25;;;6.30;;
76171;SDS011;64929;51.178;4.138;2023-07-22T06:28:32;13.82;;;6.70;;
76171;SDS011;64929;51.178;4.138;2023-07-22T06:30:58;13.45;;;6.47;;
76171;SDS011;64929;51.178;4.138;2023-07-22T06:33:24;12.80;;;6.47;;
76171;SDS011;64929;51.178;4.138;2023-07-22T06:35:49;14.48;;;6.60;;
76171;SDS011;64929;51.178;4.138;2023-07-22T06:38:15;13.23;;;6.20;;
76171;SDS011;64929;51.178;4.138;2023-07-22T06:40:41;13.63;;;6.00;;
76171;SDS011;64929;51.178;4.138;2023-07-22T06:43:06;14.98;;;6.60;;
76171;SDS011;64929;51.178;4.138;2023-07-22T06:45:32;12.38;;;6.18;;
76171;SDS011;64929;51.178;4.138;2023-07-22T06:47:58;14.45;;;6.43;;
76171;SDS011;64929;51.178;4.138;2023-07-22T06:50:24;13.43;;;6.47;;
76171;SDS011;64929;51.178;4.138;2023-07-22T06:52:50;13.57;;;6.05;;
76171;SDS011;64929;51.178;4.138;2023-07-22T06:55:15;11.45;;;5.03;;
76171;SDS011;64929;51.178;4.138;2023-07-22T06:57:41;10.10;;;5.85;;
76171;SDS011;64929;51.178;4.138;2023-07-22T07:00:07;11.05;;;6.18;;
76171;SDS011;64929;51.178;4.138;2023-07-22T07:02:35;17.52;;;6.32;;
76171;SDS011;64929;51.178;4.138;2023-07-22T07:05:01;13.00;;;6.03;;
76171;SDS011;64929;51.178;4.138;2023-07-22T07:07:27;13.30;;;5.53;;
76171;SDS011;64929;51.178;4.138;2023-07-22T07:09:52;9.90;;;5.28;;
76171;SDS011;64929;51.178;4.138;2023-07-22T07:12:18;9.80;;;5.55;;
76171;SDS011;64929;51.178;4.138;2023-07-22T07:14:44;11.75;;;5.18;;
76171;SDS011;64929;51.178;4.138;2023-07-22T07:17:10;13.25;;;5.55;;
76171;SDS011;64929;51.178;4.138;2023-07-22T07:19:35;11.90;;;5.88;;
76171;SDS011;64929;51.178;4.138;2023-07-22T07:22:01;10.02;;;5.45;;
76171;SDS011;64929;51.178;4.138;2023-07-22T07:24:28;13.85;;;5.65;;
76171;SDS011;64929;51.178;4.138;2023-07-22T07:26:53;12.57;;;4.93;;
76171;SDS011;64929;51.178;4.138;2023-07-22T07:29:19;7.75;;;4.72;;
76171;SDS011;64929;51.178;4.138;2023-07-22T07:31:45;11.00;;;4.78;;
76171;SDS011;64929;51.178;4.138;2023-07-22T07:34:11;11.85;;;4.85;;
76171;SDS011;64929;51.178;4.138;2023-07-22T07:36:36;9.98;;;4.88;;
76171;SDS011;64929;51.178;4.138;2023-07-22T07:39:02;16.55;;;4.80;;
76171;SDS011;64929;51.178;4.138;2023-07-22T07:41:28;10.07;;;3.88;;
76171;SDS011;64929;51.178;4.138;2023-07-22T07:43:54;8.18;;;3.72;;
76171;SDS011;64929;51.178;4.138;2023-07-22T07:48:48;6.82;;;3.83;;
76171;SDS011;64929;51.178;4.138;2023-07-22T07:51:14;9.13;;;4.00;;
76171;SDS011;64929;51.178;4.138;2023-07-22T07:53:41;10.75;;;4.07;;
76171;SDS011;64929;51.178;4.138;2023-07-22T07:56:09;7.53;;;4.22;;
76171;SDS011;64929;51.178;4.138;2023-07-22T07:58:35;7.90;;;3.45;;
76171;SDS011;64929;51.178;4.138;2023-07-22T08:01:01;10.50;;;3.78;;
76171;SDS011;64929;51.178;4.138;2023-07-22T08:03:27;8.63;;;4.05;;
76171;SDS011;64929;51.178;4.138;2023-07-22T08:05:52;11.38;;;4.50;;
76171;SDS011;64929;51.178;4.138;2023-07-22T08:08:18;9.95;;;3.30;;
76171;SDS011;64929;51.178;4.138;2023-07-22T08:10:44;9.50;;;3.15;;
76171;SDS011;64929;51.178;4.138;2023-07-22T08:13:10;8.43;;;3.58;;
76171;SDS011;64929;51.178;4.138;2023-07-22T08:15:36;10.90;;;3.97;;
76171;SDS011;64929;51.178;4.138;2023-07-22T08:18:02;7.70;;;3.40;;
76171;SDS011;64929;51.178;4.138;2023-07-22T08:20:29;11.13;;;3.83;;
76171;SDS011;64929;51.178;4.138;2023-07-22T08:22:55;7.18;;;3.50;;
76171;SDS011;64929;51.178;4.138;2023-07-22T08:25:21;8.35;;;3.53;;
76171;SDS011;64929;51.178;4.138;2023-07-22T08:27:47;9.18;;;3.50;;
76171;SDS011;64929;51.178;4.138;2023-07-22T08:30:12;6.82;;;3.60;;
76171;SDS011;64929;51.178;4.138;2023-07-22T08:32:38;9.80;;;3.80;;
76171;SDS011;64929;51.178;4.138;2023-07-22T08:35:04;6.32;;;3.20;;
76171;SDS011;64929;51.178;4.138;2023-07-22T08:37:31;4.95;;;2.95;;
76171;SDS011;64929;51.178;4.138;2023-07-22T08:39:56;6.75;;;2.97;;
76171;SDS011;64929;51.178;4.138;2023-07-22T08:42:22;9.05;;;3.15;;
76171;SDS011;64929;51.178;4.138;2023-07-22T08:44:49;6.47;;;2.95;;
76171;SDS011;64929;51.178;4.138;2023-07-22T08:47:20;5.90;;;2.92;;
76171;SDS011;64929;51.178;4.138;2023-07-22T08:49:50;10.43;;;3.35;;
76171;SDS011;64929;51.178;4.138;2023-07-22T08:52:17;9.23;;;3.15;;
76171;SDS011;64929;51.178;4.138;2023-07-22T08:54:43;8.57;;;2.67;;
76171;SDS011;64929;51.178;4.138;2023-07-22T08:57:11;6.22;;;2.97;;
76171;SDS011;64929;51.178;4.138;2023-07-22T08:59:37;6.43;;;3.10;;
76171;SDS011;64929;51.178;4.138;2023-07-22T09:02:03;5.75;;;2.97;;
76171;SDS011;64929;51.178;4.138;2023-07-22T09:04:30;4.60;;;2.88;;
76171;SDS011;64929;51.178;4.138;2023-07-22T09:06:56;4.40;;;2.70;;
76171;SDS011;64929;51.178;4.138;2023-07-22T09:09:23;5.78;;;2.53;;
76171;SDS011;64929;51.178;4.138;2023-07-22T09:11:50;7.43;;;3.10;;
76171;SDS011;64929;51.178;4.138;2023-07-22T09:14:19;5.82;;;2.90;;
76171;SDS011;64929;51.178;4.138;2023-07-22T09:16:45;6.57;;;3.20;;
76171;SDS011;64929;51.178;4.138;2023-07-22T09:19:11;4.43;;;2.63;;
76171;SDS011;64929;51.178;4.138;2023-07-22T09:21:36;4.50;;;2.63;;
76171;SDS011;64929;51.178;4.138;2023-07-22T09:24:04;4.57;;;2.70;;
76171;SDS011;64929;51.178;4.138;2023-07-22T09:26:46;7.45;;;2.40;;
76171;SDS011;64929;51.178;4.138;2023-07-22T09:29:12;4.45;;;2.33;;
76171;SDS011;64929;51.178;4.138;2023-07-22T09:31:48;3.83;;;2.33;;
76171;SDS011;64929;51.178;4.138;2023-07-22T09:34:17;4.28;;;2.58;;
76171;SDS011;64929;51.178;4.138;2023-07-22T09:36:58;6.75;;;2.50;;
76171;SDS011;64929;51.178;4.138;2023-07-22T09:39:29;4.85;;;2.05;;
76171;SDS011;64929;51.178;4.138;2023-07-22T09:41:55;3.33;;;2.15;;
76171;SDS011;64929;51.178;4.138;2023-07-22T09:44:28;4.25;;;2.60;;
76171;SDS011;64929;51.178;4.138;2023-07-22T09:46:57;5.57;;;2.38;;
76171;SDS011;64929;51.178;4.138;2023-07-22T09:49:23;4.90;;;2.05;;
76171;SDS011;64929;51.178;4.138;2023-07-22T09:51:50;3.40;;;1.90;;
76171;SDS011;64929;51.178;4.138;2023-07-22T09:54:17;3.50;;;2.03;;
76171;SDS011;64929;51.178;4.138;2023-07-22T09:56:49;2.60;;;1.45;;
76171;SDS011;64929;51.178;4.138;2023-07-22T10:01:43;5.03;;;1.38;;
76171;SDS011;64929;51.178;4.138;2023-07-22T10:04:12;5.35;;;1.55;;
76171;SDS011;64929;51.178;4.138;2023-07-22T10:06:40;3.55;;;1.40;;
76171;SDS011;64929;51.178;4.138;2023-07-22T10:09:08;4.35;;;1.80;;
76171;SDS011;64929;51.178;4.138;2023-07-22T10:11:37;4.18;;;1.50;;
76171;SDS011;64929;51.178;4.138;2023-07-22T10:14:04;3.85;;;1.60;;
76171;SDS011;64929;51.178;4.138;2023-07-22T10:16:30;2.17;;;1.45;;
76171;SDS011;64929;51.178;4.138;2023-07-22T10:18:57;3.08;;;1.75;;
76171;SDS011;64929;51.178;4.138;2023-07-22T10:21:24;2.83;;;1.23;;
76171;SDS011;64929;51.178;4.138;2023-07-22T10:23:51;3.13;;;1.50;;
76171;SDS011;64929;51.178;4.138;2023-07-22T10:26:18;2.42;;;1.50;;
76171;SDS011;64929;51.178;4.138;2023-07-22T10:28:45;2.30;;;1.58;;
76171;SDS011;64929;51.178;4.138;2023-07-22T10:31:13;4.22;;;1.73;;
76171;SDS011;64929;51.178;4.138;2023-07-22T10:33:43;3.13;;;1.55;;
76171;SDS011;64929;51.178;4.138;2023-07-22T10:36:16;3.17;;;1.63;;
76171;SDS011;64929;51.178;4.138;2023-07-22T10:38:42;1.70;;;1.27;;
76171;SDS011;64929;51.178;4.138;2023-07-22T10:41:15;3.47;;;1.58;;
76171;SDS011;64929;51.178;4.138;2023-07-22T10:43:42;2.95;;;1.30;;
76171;SDS011;64929;51.178;4.138;2023-07-22T10:46:19;2.13;;;1.42;;
76171;SDS011;64929;51.178;4.138;2023-07-22T10:49:11;3.35;;;1.70;;
76171;SDS011;64929;51.178;4.138;2023-07-22T10:54:10;2.42;;;1.13;;
76171;SDS011;64929;51.178;4.138;2023-07-22T10:56:48;3.13;;;1.10;;
76171;SDS011;64929;51.178;4.138;2023-07-22T10:59:14;1.77;;;1.40;;
76171;SDS011;64929;51.178;4.138;2023-07-22T11:01:39;5.00;;;1.48;;
76171;SDS011;64929;51.178;4.138;2023-07-22T11:04:13;1.60;;;0.90;;
76171;SDS011;64929;51.178;4.138;2023-07-22T11:14:27;2.35;;;0.90;;
76171;SDS011;64929;51.178;4.138;2023-07-22T11:16:53;2.00;;;0.90;;
76171;SDS011;64929;51.178;4.138;2023-07-22T11:19:21;2.60;;;1.20;;
76171;SDS011;64929;51.178;4.138;2023-07-22T11:21:52;1.25;;;1.15;;
76171;SDS011;64929;51.178;4.138;2023-07-22T11:24:19;3.00;;;1.10;;
76171;SDS011;64929;51.178;4.138;2023-07-22T11:26:46;1.20;;;1.02;;
76171;SDS011;64929;51.178;4.138;2023-07-22T11:29:12;2.35;;;1.20;;
76171;SDS011;64929;51.178;4.138;2023-07-22T11:31:48;1.58;;;0.98;;
76171;SDS011;64929;51.178;4.138;2023-07-22T11:34:16;2.53;;;1.10;;
76171;SDS011;64929;51.178;4.138;2023-07-22T11:36:43;1.85;;;1.17;;
76171;SDS011;64929;51.178;4.138;2023-07-22T11:39:10;2.47;;;0.90;;
76171;SDS011;64929;51.178;4.138;2023-07-22T11:41:43;1.63;;;1.00;;
76171;SDS011;64929;51.178;4.138;2023-07-22T11:44:10;1.27;;;1.00;;
76171;SDS011;64929;51.178;4.138;2023-07-22T11:46:47;1.30;;;1.00;;
76171;SDS011;64929;51.178;4.138;2023-07-22T11:49:25;1.95;;;0.90;;
76171;SDS011;64929;51.178;4.138;2023-07-22T11:51:58;2.22;;;1.20;;
76171;SDS011;64929;51.178;4.138;2023-07-22T11:54:26;1.45;;;1.10;;
76171;SDS011;64929;51.178;4.138;2023-07-22T11:56:53;3.33;;;1.15;;
76171;SDS011;64929;51.178;4.138;2023-07-22T11:59:38;2.28;;;1.10;;
76171;SDS011;64929;51.178;4.138;2023-07-22T12:02:11;2.20;;;1.00;;
76171;SDS011;64929;51.178;4.138;2023-07-22T12:04:51;1.92;;;1.58;;
76171;SDS011;64929;51.178;4.138;2023-07-22T12:07:25;1.45;;;1.20;;
76171;SDS011;64929;51.178;4.138;2023-07-22T12:09:55;1.70;;;1.05;;
76171;SDS011;64929;51.178;4.138;2023-07-22T12:12:42;1.10;;;0.90;;
76171;SDS011;64929;51.178;4.138;2023-07-22T12:17:46;1.45;;;0.98;;
76171;SDS011;64929;51.178;4.138;2023-07-22T12:20:12;1.55;;;0.95;;
76171;SDS011;64929;51.178;4.138;2023-07-22T12:22:38;1.10;;;1.00;;
76171;SDS011;64929;51.178;4.138;2023-07-22T12:25:03;2.55;;;1.10;;
76171;SDS011;64929;51.178;4.138;2023-07-22T12:27:30;2.55;;;0.93;;
76171;SDS011;64929;51.178;4.138;2023-07-22T12:29:56;3.75;;;0.88;;
76171;SDS011;64929;51.178;4.138;2023-07-22T12:32:21;2.25;;;1.10;;
76171;SDS011;64929;51.178;4.138;2023-07-22T12:34:47;2.47;;;1.20;;
76171;SDS011;64929;51.178;4.138;2023-07-22T12:37:13;2.20;;;1.30;;
76171;SDS011;64929;51.178;4.138;2023-07-22T12:39:39;2.90;;;0.95;;
76171;SDS011;64929;51.178;4.138;2023-07-22T12:42:04;2.05;;;1.05;;
76171;SDS011;64929;51.178;4.138;2023-07-22T12:44:30;2.50;;;1.20;;
76171;SDS011;64929;51.178;4.138;2023-07-22T12:46:56;3.70;;;1.42;;
76171;SDS011;64929;51.178;4.138;2023-07-22T12:49:22;4.95;;;1.88;;
76171;SDS011;64929;51.178;4.138;2023-07-22T12:51:48;2.55;;;1.40;;
76171;SDS011;64929;51.178;4.138;2023-07-22T12:54:14;2.25;;;1.30;;
76171;SDS011;64929;51.178;4.138;2023-07-22T12:56:39;3.45;;;1.15;;
76171;SDS011;64929;51.178;4.138;2023-07-22T12:59:05;3.13;;;1.35;;
76171;SDS011;64929;51.178;4.138;2023-07-22T13:01:31;6.90;;;1.80;;
76171;SDS011;64929;51.178;4.138;2023-07-22T13:03:56;2.47;;;1.40;;
76171;SDS011;64929;51.178;4.138;2023-07-22T13:06:22;5.65;;;1.30;;
76171;SDS011;64929;51.178;4.138;2023-07-22T13:08:48;2.50;;;1.35;;
76171;SDS011;64929;51.178;4.138;2023-07-22T13:11:13;2.25;;;1.00;;
76171;SDS011;64929;51.178;4.138;2023-07-22T13:13:39;3.90;;;1.15;;
76171;SDS011;64929;51.178;4.138;2023-07-22T13:16:05;1.50;;;0.90;;
76171;SDS011;64929;51.178;4.138;2023-07-22T13:18:32;1.85;;;1.45;;
76171;SDS011;64929;51.178;4.138;2023-07-22T13:20:57;2.15;;;1.20;;
76171;SDS011;64929;51.178;4.138;2023-07-22T13:23:23;2.15;;;1.00;;
76171;SDS011;64929;51.178;4.138;2023-07-22T13:25:49;4.13;;;1.13;;
76171;SDS011;64929;51.178;4.138;2023-07-22T13:28:16;1.83;;;1.20;;
76171;SDS011;64929;51.178;4.138;2023-07-22T13:30:42;2.30;;;1.00;;
76171;SDS011;64929;51.178;4.138;2023-07-22T13:33:07;3.72;;;1.02;;
76171;SDS011;64929;51.178;4.138;2023-07-22T13:35:34;1.73;;;1.15;;
76171;SDS011;64929;51.178;4.138;2023-07-22T13:37:59;1.25;;;0.90;;
76171;SDS011;64929;51.178;4.138;2023-07-22T13:40:25;2.50;;;1.20;;
76171;SDS011;64929;51.178;4.138;2023-07-22T13:42:51;2.05;;;1.10;;
76171;SDS011;64929;51.178;4.138;2023-07-22T13:45:17;1.63;;;1.05;;
76171;SDS011;64929;51.178;4.138;2023-07-22T13:47:42;2.60;;;1.13;;
76171;SDS011;64929;51.178;4.138;2023-07-22T13:50:08;1.83;;;0.93;;
76171;SDS011;64929;51.178;4.138;2023-07-22T13:52:34;4.07;;;1.08;;
76171;SDS011;64929;51.178;4.138;2023-07-22T13:55:00;1.67;;;1.13;;
76171;SDS011;64929;51.178;4.138;2023-07-22T13:57:26;4.97;;;1.20;;
76171;SDS011;64929;51.178;4.138;2023-07-22T13:59:52;5.15;;;1.30;;
76171;SDS011;64929;51.178;4.138;2023-07-22T14:02:18;2.58;;;1.23;;
76171;SDS011;64929;51.178;4.138;2023-07-22T14:04:44;2.72;;;1.52;;
76171;SDS011;64929;51.178;4.138;2023-07-22T14:07:09;1.98;;;1.10;;
76171;SDS011;64929;51.178;4.138;2023-07-22T14:09:35;4.03;;;1.33;;
76171;SDS011;64929;51.178;4.138;2023-07-22T14:12:01;3.25;;;1.25;;
76171;SDS011;64929;51.178;4.138;2023-07-22T14:14:28;2.30;;;0.82;;
76171;SDS011;64929;51.178;4.138;2023-07-22T14:16:54;2.55;;;1.23;;
76171;SDS011;64929;51.178;4.138;2023-07-22T14:19:21;2.60;;;1.23;;
76171;SDS011;64929;51.178;4.138;2023-07-22T14:21:46;3.60;;;1.00;;
76171;SDS011;64929;51.178;4.138;2023-07-22T14:24:12;2.40;;;1.25;;
76171;SDS011;64929;51.178;4.138;2023-07-22T14:26:38;2.17;;;0.98;;
76171;SDS011;64929;51.178;4.138;2023-07-22T14:29:03;2.65;;;1.00;;
76171;SDS011;64929;51.178;4.138;2023-07-22T14:31:29;3.38;;;1.60;;
76171;SDS011;64929;51.178;4.138;2023-07-22T14:33:55;2.25;;;0.90;;
76171;SDS011;64929;51.178;4.138;2023-07-22T14:36:20;1.88;;;1.00;;
76171;SDS011;64929;51.178;4.138;2023-07-22T14:38:46;4.00;;;1.10;;
76171;SDS011;64929;51.178;4.138;2023-07-22T14:41:12;2.45;;;1.25;;
76171;SDS011;64929;51.178;4.138;2023-07-22T14:43:37;1.42;;;0.80;;
76171;SDS011;64929;51.178;4.138;2023-07-22T14:46:03;1.08;;;0.90;;
76171;SDS011;64929;51.178;4.138;2023-07-22T14:48:29;4.53;;;1.10;;
76171;SDS011;64929;51.178;4.138;2023-07-22T14:50:55;2.78;;;1.55;;
76171;SDS011;64929;51.178;4.138;2023-07-22T14:53:20;2.33;;;0.88;;
76171;SDS011;64929;51.178;4.138;2023-07-22T14:55:46;2.40;;;1.08;;